AERODROME FORECAST
Output Produced by Aerodrome Forecast
found at http://aviationweather.gov/adds/metars/
 

Data at: 0647 UTC 05 Apr 2020

TAF for:WIII (Jakarta Intl, JB, ID) issued at 0500 UTC 05 Apr 2020
Text:TAF WIII 050500Z 0506/0612 36010KT 9000 SCT020
Forecast period:0600 to 1400 UTC 05 April 2020
Forecast type:FROM: standard forecast or significant change
Winds:from the N (360 degrees) at 12 MPH (10 knots; 5.1 m/s)
Visibility: 6 sm ( 9 km)
Ceiling:at least 12,000 feet AGL
Clouds: scattered clouds at 2000 feet AGL
Text:BECMG 0514/0516 19003KT
Forecast period:1400 UTC 05 April 2020 to 1200 UTC 06 April 2020
Forecast type:BECOMING: Conditions expected to become as follows by 1600 UTC 05 April 2020
Winds:from the S (190 degrees) at 3 MPH (3 knots; 1.5 m/s)
Visibility: 6 sm ( 9 km)
Ceiling:at least 12,000 feet AGL
Clouds: scattered clouds at 2000 feet AGL